sensor_id;sensor_type;location;lat;lon;timestamp;P1;durP1;ratioP1;P2;durP2;ratioP2
9665;SDS011;4871;52.004;5.924;2023-06-22T00:00:00;5.80;;;5.30;;
9665;SDS011;4871;52.004;5.924;2023-06-22T00:01:00;5.80;;;5.30;;
9665;SDS011;4871;52.004;5.924;2023-06-22T00:02:00;5.80;;;5.30;;
9665;SDS011;4871;52.004;5.924;2023-06-22T00:03:00;5.80;;;5.30;;
9665;SDS011;4871;52.004;5.924;2023-06-22T00:04:00;5.80;;;5.30;;
9665;SDS011;4871;52.004;5.924;2023-06-22T00:05:00;6.10;;;5.60;;
9665;SDS011;4871;52.004;5.924;2023-06-22T00:06:00;6.10;;;5.60;;
9665;SDS011;4871;52.004;5.924;2023-06-22T00:07:00;6.10;;;5.60;;
9665;SDS011;4871;52.004;5.924;2023-06-22T00:08:01;6.10;;;5.60;;
9665;SDS011;4871;52.004;5.924;2023-06-22T00:09:00;6.10;;;5.60;;
9665;SDS011;4871;52.004;5.924;2023-06-22T00:10:00;6.10;;;5.60;;
9665;SDS011;4871;52.004;5.924;2023-06-22T00:11:00;6.10;;;5.60;;
9665;SDS011;4871;52.004;5.924;2023-06-22T00:12:00;6.10;;;5.60;;
9665;SDS011;4871;52.004;5.924;2023-06-22T00:13:00;6.10;;;5.60;;
9665;SDS011;4871;52.004;5.924;2023-06-22T00:14:00;6.10;;;5.60;;
9665;SDS011;4871;52.004;5.924;2023-06-22T00:15:00;6.10;;;5.60;;
9665;SDS011;4871;52.004;5.924;2023-06-22T00:16:00;6.10;;;5.60;;
9665;SDS011;4871;52.004;5.924;2023-06-22T00:17:00;6.10;;;5.60;;
9665;SDS011;4871;52.004;5.924;2023-06-22T00:18:00;6.10;;;5.60;;
9665;SDS011;4871;52.004;5.924;2023-06-22T00:19:00;6.10;;;5.60;;
9665;SDS011;4871;52.004;5.924;2023-06-22T00:20:00;6.10;;;5.60;;
9665;SDS011;4871;52.004;5.924;2023-06-22T00:21:00;6.10;;;5.60;;
9665;SDS011;4871;52.004;5.924;2023-06-22T00:22:00;6.10;;;5.60;;
9665;SDS011;4871;52.004;5.924;2023-06-22T00:23:00;6.10;;;5.60;;
9665;SDS011;4871;52.004;5.924;2023-06-22T00:24:00;6.10;;;5.60;;
9665;SDS011;4871;52.004;5.924;2023-06-22T00:25:00;6.10;;;5.60;;
9665;SDS011;4871;52.004;5.924;2023-06-22T00:26:00;6.10;;;5.60;;
9665;SDS011;4871;52.004;5.924;2023-06-22T00:27:00;6.10;;;5.60;;
9665;SDS011;4871;52.004;5.924;2023-06-22T00:28:00;6.10;;;5.60;;
9665;SDS011;4871;52.004;5.924;2023-06-22T00:29:00;6.10;;;5.60;;
9665;SDS011;4871;52.004;5.924;2023-06-22T00:30:00;6.10;;;5.60;;
9665;SDS011;4871;52.004;5.924;2023-06-22T00:31:00;6.10;;;5.60;;
9665;SDS011;4871;52.004;5.924;2023-06-22T00:32:00;6.10;;;5.60;;
9665;SDS011;4871;52.004;5.924;2023-06-22T00:33:00;6.10;;;5.60;;
9665;SDS011;4871;52.004;5.924;2023-06-22T00:34:00;6.10;;;5.60;;
9665;SDS011;4871;52.004;5.924;2023-06-22T00:35:00;6.20;;;5.70;;
9665;SDS011;4871;52.004;5.924;2023-06-22T00:36:00;6.20;;;5.70;;
9665;SDS011;4871;52.004;5.924;2023-06-22T00:37:00;6.20;;;5.70;;
9665;SDS011;4871;52.004;5.924;2023-06-22T00:38:01;6.20;;;5.70;;
9665;SDS011;4871;52.004;5.924;2023-06-22T00:39:00;6.20;;;5.70;;
9665;SDS011;4871;52.004;5.924;2023-06-22T00:40:00;6.20;;;5.70;;
9665;SDS011;4871;52.004;5.924;2023-06-22T00:41:00;6.20;;;5.70;;
9665;SDS011;4871;52.004;5.924;2023-06-22T00:42:00;6.20;;;5.70;;
9665;SDS011;4871;52.004;5.924;2023-06-22T00:43:00;6.20;;;5.70;;
9665;SDS011;4871;52.004;5.924;2023-06-22T00:44:00;6.20;;;5.70;;
9665;SDS011;4871;52.004;5.924;2023-06-22T00:45:00;6.20;;;5.70;;
9665;SDS011;4871;52.004;5.924;2023-06-22T00:46:00;6.20;;;5.70;;
9665;SDS011;4871;52.004;5.924;2023-06-22T00:47:00;6.20;;;5.70;;
9665;SDS011;4871;52.004;5.924;2023-06-22T00:48:00;6.20;;;5.70;;
9665;SDS011;4871;52.004;5.924;2023-06-22T00:49:00;6.20;;;5.70;;
9665;SDS011;4871;52.004;5.924;2023-06-22T00:50:00;6.20;;;5.70;;
9665;SDS011;4871;52.004;5.924;2023-06-22T00:51:00;6.20;;;5.70;;
9665;SDS011;4871;52.004;5.924;2023-06-22T00:52:00;6.20;;;5.70;;
9665;SDS011;4871;52.004;5.924;2023-06-22T00:53:01;6.20;;;5.70;;
9665;SDS011;4871;52.004;5.924;2023-06-22T00:54:00;6.20;;;5.70;;
9665;SDS011;4871;52.004;5.924;2023-06-22T00:55:01;6.20;;;5.70;;
9665;SDS011;4871;52.004;5.924;2023-06-22T00:56:00;6.20;;;5.70;;
9665;SDS011;4871;52.004;5.924;2023-06-22T00:57:00;6.20;;;5.70;;
9665;SDS011;4871;52.004;5.924;2023-06-22T00:58:00;6.20;;;5.70;;
9665;SDS011;4871;52.004;5.924;2023-06-22T00:59:00;6.20;;;5.70;;
9665;SDS011;4871;52.004;5.924;2023-06-22T01:00:00;6.20;;;5.70;;
9665;SDS011;4871;52.004;5.924;2023-06-22T01:01:01;6.20;;;5.70;;
9665;SDS011;4871;52.004;5.924;2023-06-22T01:02:00;6.20;;;5.70;;
9665;SDS011;4871;52.004;5.924;2023-06-22T01:03:01;6.20;;;5.70;;
9665;SDS011;4871;52.004;5.924;2023-06-22T01:04:00;6.20;;;5.70;;
9665;SDS011;4871;52.004;5.924;2023-06-22T01:05:00;6.30;;;5.80;;
9665;SDS011;4871;52.004;5.924;2023-06-22T01:06:02;6.30;;;5.80;;
9665;SDS011;4871;52.004;5.924;2023-06-22T01:07:07;6.30;;;5.80;;
9665;SDS011;4871;52.004;5.924;2023-06-22T01:08:03;6.30;;;5.80;;
9665;SDS011;4871;52.004;5.924;2023-06-22T01:09:00;6.30;;;5.80;;
9665;SDS011;4871;52.004;5.924;2023-06-22T01:10:07;6.30;;;5.80;;
9665;SDS011;4871;52.004;5.924;2023-06-22T01:11:01;6.30;;;5.80;;
9665;SDS011;4871;52.004;5.924;2023-06-22T01:12:01;6.30;;;5.80;;
9665;SDS011;4871;52.004;5.924;2023-06-22T01:13:01;6.30;;;5.80;;
9665;SDS011;4871;52.004;5.924;2023-06-22T01:14:01;6.30;;;5.80;;
9665;SDS011;4871;52.004;5.924;2023-06-22T01:15:02;6.30;;;5.80;;
9665;SDS011;4871;52.004;5.924;2023-06-22T01:16:00;6.30;;;5.80;;
9665;SDS011;4871;52.004;5.924;2023-06-22T01:17:00;6.30;;;5.80;;
9665;SDS011;4871;52.004;5.924;2023-06-22T01:18:00;6.30;;;5.80;;
9665;SDS011;4871;52.004;5.924;2023-06-22T01:19:01;6.30;;;5.80;;
9665;SDS011;4871;52.004;5.924;2023-06-22T01:20:00;6.30;;;5.80;;
9665;SDS011;4871;52.004;5.924;2023-06-22T01:21:00;6.30;;;5.80;;
9665;SDS011;4871;52.004;5.924;2023-06-22T01:22:00;6.30;;;5.80;;
9665;SDS011;4871;52.004;5.924;2023-06-22T01:23:03;6.30;;;5.80;;
9665;SDS011;4871;52.004;5.924;2023-06-22T01:24:02;6.30;;;5.80;;
9665;SDS011;4871;52.004;5.924;2023-06-22T01:25:04;6.30;;;5.80;;
9665;SDS011;4871;52.004;5.924;2023-06-22T01:26:04;6.30;;;5.80;;
9665;SDS011;4871;52.004;5.924;2023-06-22T01:27:03;6.30;;;5.80;;
9665;SDS011;4871;52.004;5.924;2023-06-22T01:28:03;6.30;;;5.80;;
9665;SDS011;4871;52.004;5.924;2023-06-22T01:29:00;6.30;;;5.80;;
9665;SDS011;4871;52.004;5.924;2023-06-22T01:30:01;6.30;;;5.80;;
9665;SDS011;4871;52.004;5.924;2023-06-22T01:31:05;6.30;;;5.80;;
9665;SDS011;4871;52.004;5.924;2023-06-22T01:32:00;6.30;;;5.80;;
9665;SDS011;4871;52.004;5.924;2023-06-22T01:33:00;6.30;;;5.80;;
9665;SDS011;4871;52.004;5.924;2023-06-22T01:34:00;6.30;;;5.80;;
9665;SDS011;4871;52.004;5.924;2023-06-22T01:35:00;6.40;;;5.90;;
9665;SDS011;4871;52.004;5.924;2023-06-22T01:36:00;6.40;;;5.90;;
9665;SDS011;4871;52.004;5.924;2023-06-22T01:37:00;6.40;;;5.90;;
9665;SDS011;4871;52.004;5.924;2023-06-22T01:38:00;6.40;;;5.90;;
9665;SDS011;4871;52.004;5.924;2023-06-22T01:39:00;6.40;;;5.90;;
9665;SDS011;4871;52.004;5.924;2023-06-22T01:40:00;6.40;;;5.90;;
9665;SDS011;4871;52.004;5.924;2023-06-22T01:41:00;6.40;;;5.90;;
9665;SDS011;4871;52.004;5.924;2023-06-22T01:42:00;6.40;;;5.90;;
9665;SDS011;4871;52.004;5.924;2023-06-22T01:43:00;6.40;;;5.90;;
9665;SDS011;4871;52.004;5.924;2023-06-22T01:44:00;6.40;;;5.90;;
9665;SDS011;4871;52.004;5.924;2023-06-22T01:45:00;6.40;;;5.90;;
9665;SDS011;4871;52.004;5.924;2023-06-22T01:46:00;6.40;;;5.90;;
9665;SDS011;4871;52.004;5.924;2023-06-22T01:47:00;6.40;;;5.90;;
9665;SDS011;4871;52.004;5.924;2023-06-22T01:48:00;6.40;;;5.90;;
9665;SDS011;4871;52.004;5.924;2023-06-22T01:49:00;6.40;;;5.90;;
9665;SDS011;4871;52.004;5.924;2023-06-22T01:50:00;6.40;;;5.90;;
9665;SDS011;4871;52.004;5.924;2023-06-22T01:51:00;6.40;;;5.90;;
9665;SDS011;4871;52.004;5.924;2023-06-22T01:52:00;6.40;;;5.90;;
9665;SDS011;4871;52.004;5.924;2023-06-22T01:53:00;6.40;;;5.90;;
9665;SDS011;4871;52.004;5.924;2023-06-22T01:54:00;6.40;;;5.90;;
9665;SDS011;4871;52.004;5.924;2023-06-22T01:55:00;6.40;;;5.90;;
9665;SDS011;4871;52.004;5.924;2023-06-22T01:56:00;6.40;;;5.90;;
9665;SDS011;4871;52.004;5.924;2023-06-22T01:57:00;6.40;;;5.90;;
9665;SDS011;4871;52.004;5.924;2023-06-22T01:58:00;6.40;;;5.90;;
9665;SDS011;4871;52.004;5.924;2023-06-22T01:59:00;6.40;;;5.90;;
9665;SDS011;4871;52.004;5.924;2023-06-22T02:00:01;6.40;;;5.90;;
9665;SDS011;4871;52.004;5.924;2023-06-22T02:01:05;6.40;;;5.90;;
9665;SDS011;4871;52.004;5.924;2023-06-22T02:02:01;6.40;;;5.90;;
9665;SDS011;4871;52.004;5.924;2023-06-22T02:03:01;6.40;;;5.90;;
9665;SDS011;4871;52.004;5.924;2023-06-22T02:04:02;6.40;;;5.90;;
9665;SDS011;4871;52.004;5.924;2023-06-22T02:05:01;5.40;;;4.90;;
9665;SDS011;4871;52.004;5.924;2023-06-22T02:06:01;5.40;;;4.90;;
9665;SDS011;4871;52.004;5.924;2023-06-22T02:07:00;5.40;;;4.90;;
9665;SDS011;4871;52.004;5.924;2023-06-22T02:08:01;5.40;;;4.90;;
9665;SDS011;4871;52.004;5.924;2023-06-22T02:09:01;5.40;;;4.90;;
9665;SDS011;4871;52.004;5.924;2023-06-22T02:10:00;5.40;;;4.90;;
9665;SDS011;4871;52.004;5.924;2023-06-22T02:11:00;5.40;;;4.90;;
9665;SDS011;4871;52.004;5.924;2023-06-22T02:12:00;5.40;;;4.90;;
9665;SDS011;4871;52.004;5.924;2023-06-22T02:13:00;5.40;;;4.90;;
9665;SDS011;4871;52.004;5.924;2023-06-22T02:14:00;5.40;;;4.90;;
9665;SDS011;4871;52.004;5.924;2023-06-22T02:15:00;5.40;;;4.90;;
9665;SDS011;4871;52.004;5.924;2023-06-22T02:16:00;5.40;;;4.90;;
9665;SDS011;4871;52.004;5.924;2023-06-22T02:17:00;5.40;;;4.90;;
9665;SDS011;4871;52.004;5.924;2023-06-22T02:18:00;5.40;;;4.90;;
9665;SDS011;4871;52.004;5.924;2023-06-22T02:19:03;5.40;;;4.90;;
9665;SDS011;4871;52.004;5.924;2023-06-22T02:20:00;5.40;;;4.90;;
9665;SDS011;4871;52.004;5.924;2023-06-22T02:21:00;5.40;;;4.90;;
9665;SDS011;4871;52.004;5.924;2023-06-22T02:22:00;5.40;;;4.90;;
9665;SDS011;4871;52.004;5.924;2023-06-22T02:23:00;5.40;;;4.90;;
9665;SDS011;4871;52.004;5.924;2023-06-22T02:24:00;5.40;;;4.90;;
9665;SDS011;4871;52.004;5.924;2023-06-22T02:25:00;5.40;;;4.90;;
9665;SDS011;4871;52.004;5.924;2023-06-22T02:26:00;5.40;;;4.90;;
9665;SDS011;4871;52.004;5.924;2023-06-22T02:27:00;5.40;;;4.90;;
9665;SDS011;4871;52.004;5.924;2023-06-22T02:28:00;5.40;;;4.90;;
9665;SDS011;4871;52.004;5.924;2023-06-22T02:29:00;5.40;;;4.90;;
9665;SDS011;4871;52.004;5.924;2023-06-22T02:30:00;5.40;;;4.90;;
9665;SDS011;4871;52.004;5.924;2023-06-22T02:31:00;5.40;;;4.90;;
9665;SDS011;4871;52.004;5.924;2023-06-22T02:32:00;5.40;;;4.90;;
9665;SDS011;4871;52.004;5.924;2023-06-22T02:33:00;5.40;;;4.90;;
9665;SDS011;4871;52.004;5.924;2023-06-22T02:34:00;5.40;;;4.90;;
9665;SDS011;4871;52.004;5.924;2023-06-22T02:35:04;7.40;;;6.80;;
9665;SDS011;4871;52.004;5.924;2023-06-22T02:36:00;7.40;;;6.80;;
9665;SDS011;4871;52.004;5.924;2023-06-22T02:37:03;7.40;;;6.80;;
9665;SDS011;4871;52.004;5.924;2023-06-22T02:38:00;7.40;;;6.80;;
9665;SDS011;4871;52.004;5.924;2023-06-22T02:39:01;7.40;;;6.80;;
9665;SDS011;4871;52.004;5.924;2023-06-22T02:40:00;7.40;;;6.80;;
9665;SDS011;4871;52.004;5.924;2023-06-22T02:41:00;7.40;;;6.80;;
9665;SDS011;4871;52.004;5.924;2023-06-22T02:42:00;7.40;;;6.80;;
9665;SDS011;4871;52.004;5.924;2023-06-22T02:43:02;7.40;;;6.80;;
9665;SDS011;4871;52.004;5.924;2023-06-22T02:44:00;7.40;;;6.80;;
9665;SDS011;4871;52.004;5.924;2023-06-22T02:45:00;7.40;;;6.80;;
9665;SDS011;4871;52.004;5.924;2023-06-22T02:46:00;7.40;;;6.80;;
9665;SDS011;4871;52.004;5.924;2023-06-22T02:47:00;7.40;;;6.80;;
9665;SDS011;4871;52.004;5.924;2023-06-22T02:48:00;7.40;;;6.80;;
9665;SDS011;4871;52.004;5.924;2023-06-22T02:49:00;7.40;;;6.80;;
9665;SDS011;4871;52.004;5.924;2023-06-22T02:50:00;7.40;;;6.80;;
9665;SDS011;4871;52.004;5.924;2023-06-22T02:51:00;7.40;;;6.80;;
9665;SDS011;4871;52.004;5.924;2023-06-22T02:52:00;7.40;;;6.80;;
9665;SDS011;4871;52.004;5.924;2023-06-22T02:53:00;7.40;;;6.80;;
9665;SDS011;4871;52.004;5.924;2023-06-22T02:54:00;7.40;;;6.80;;
9665;SDS011;4871;52.004;5.924;2023-06-22T02:55:00;7.40;;;6.80;;
9665;SDS011;4871;52.004;5.924;2023-06-22T02:56:01;7.40;;;6.80;;
9665;SDS011;4871;52.004;5.924;2023-06-22T02:57:03;7.40;;;6.80;;
9665;SDS011;4871;52.004;5.924;2023-06-22T02:58:04;7.40;;;6.80;;
9665;SDS011;4871;52.004;5.924;2023-06-22T02:59:01;7.40;;;6.80;;
9665;SDS011;4871;52.004;5.924;2023-06-22T03:00:02;7.40;;;6.80;;
9665;SDS011;4871;52.004;5.924;2023-06-22T03:01:04;7.40;;;6.80;;
9665;SDS011;4871;52.004;5.924;2023-06-22T03:02:00;7.40;;;6.80;;
9665;SDS011;4871;52.004;5.924;2023-06-22T03:03:00;7.40;;;6.80;;
9665;SDS011;4871;52.004;5.924;2023-06-22T03:04:00;7.40;;;6.80;;
9665;SDS011;4871;52.004;5.924;2023-06-22T03:05:01;6.30;;;5.70;;
9665;SDS011;4871;52.004;5.924;2023-06-22T03:06:00;6.30;;;5.70;;
9665;SDS011;4871;52.004;5.924;2023-06-22T03:07:01;6.30;;;5.70;;
9665;SDS011;4871;52.004;5.924;2023-06-22T03:08:00;6.30;;;5.70;;
9665;SDS011;4871;52.004;5.924;2023-06-22T03:09:02;6.30;;;5.70;;
9665;SDS011;4871;52.004;5.924;2023-06-22T03:10:00;6.30;;;5.70;;
9665;SDS011;4871;52.004;5.924;2023-06-22T03:11:00;6.30;;;5.70;;
9665;SDS011;4871;52.004;5.924;2023-06-22T03:12:02;6.30;;;5.70;;
9665;SDS011;4871;52.004;5.924;2023-06-22T03:13:00;6.30;;;5.70;;
9665;SDS011;4871;52.004;5.924;2023-06-22T03:14:00;6.30;;;5.70;;
9665;SDS011;4871;52.004;5.924;2023-06-22T03:15:00;6.30;;;5.70;;
9665;SDS011;4871;52.004;5.924;2023-06-22T03:16:00;6.30;;;5.70;;
9665;SDS011;4871;52.004;5.924;2023-06-22T03:17:03;6.30;;;5.70;;
9665;SDS011;4871;52.004;5.924;2023-06-22T03:18:00;6.30;;;5.70;;
9665;SDS011;4871;52.004;5.924;2023-06-22T03:19:00;6.30;;;5.70;;
9665;SDS011;4871;52.004;5.924;2023-06-22T03:20:00;6.30;;;5.70;;
9665;SDS011;4871;52.004;5.924;2023-06-22T03:21:02;6.30;;;5.70;;
9665;SDS011;4871;52.004;5.924;2023-06-22T03:22:00;6.30;;;5.70;;
9665;SDS011;4871;52.004;5.924;2023-06-22T03:23:00;6.30;;;5.70;;
9665;SDS011;4871;52.004;5.924;2023-06-22T03:24:00;6.30;;;5.70;;
9665;SDS011;4871;52.004;5.924;2023-06-22T03:25:00;6.30;;;5.70;;
9665;SDS011;4871;52.004;5.924;2023-06-22T03:26:00;6.30;;;5.70;;
9665;SDS011;4871;52.004;5.924;2023-06-22T03:27:00;6.30;;;5.70;;
9665;SDS011;4871;52.004;5.924;2023-06-22T03:28:00;6.30;;;5.70;;
9665;SDS011;4871;52.004;5.924;2023-06-22T03:29:00;6.30;;;5.70;;
9665;SDS011;4871;52.004;5.924;2023-06-22T03:30:00;6.30;;;5.70;;
9665;SDS011;4871;52.004;5.924;2023-06-22T03:31:00;6.30;;;5.70;;
9665;SDS011;4871;52.004;5.924;2023-06-22T03:32:00;6.30;;;5.70;;
9665;SDS011;4871;52.004;5.924;2023-06-22T03:33:00;6.30;;;5.70;;
9665;SDS011;4871;52.004;5.924;2023-06-22T03:34:00;6.30;;;5.70;;
9665;SDS011;4871;52.004;5.924;2023-06-22T03:35:00;7.80;;;7.10;;
9665;SDS011;4871;52.004;5.924;2023-06-22T03:36:00;7.80;;;7.10;;
9665;SDS011;4871;52.004;5.924;2023-06-22T03:37:00;7.80;;;7.10;;
9665;SDS011;4871;52.004;5.924;2023-06-22T03:38:00;7.80;;;7.10;;
9665;SDS011;4871;52.004;5.924;2023-06-22T03:39:00;7.80;;;7.10;;
9665;SDS011;4871;52.004;5.924;2023-06-22T03:40:00;7.80;;;7.10;;
9665;SDS011;4871;52.004;5.924;2023-06-22T03:41:00;7.80;;;7.10;;
9665;SDS011;4871;52.004;5.924;2023-06-22T03:42:00;7.80;;;7.10;;
9665;SDS011;4871;52.004;5.924;2023-06-22T03:43:00;7.80;;;7.10;;
9665;SDS011;4871;52.004;5.924;2023-06-22T03:44:00;7.80;;;7.10;;
9665;SDS011;4871;52.004;5.924;2023-06-22T03:45:01;7.80;;;7.10;;
9665;SDS011;4871;52.004;5.924;2023-06-22T03:46:00;7.80;;;7.10;;
9665;SDS011;4871;52.004;5.924;2023-06-22T03:47:02;7.80;;;7.10;;
9665;SDS011;4871;52.004;5.924;2023-06-22T03:48:00;7.80;;;7.10;;
9665;SDS011;4871;52.004;5.924;2023-06-22T03:49:00;7.80;;;7.10;;
9665;SDS011;4871;52.004;5.924;2023-06-22T03:50:00;7.80;;;7.10;;
9665;SDS011;4871;52.004;5.924;2023-06-22T03:51:00;7.80;;;7.10;;
9665;SDS011;4871;52.004;5.924;2023-06-22T03:52:00;7.80;;;7.10;;
9665;SDS011;4871;52.004;5.924;2023-06-22T03:53:00;7.80;;;7.10;;
9665;SDS011;4871;52.004;5.924;2023-06-22T03:54:00;7.80;;;7.10;;
9665;SDS011;4871;52.004;5.924;2023-06-22T03:55:00;7.80;;;7.10;;
9665;SDS011;4871;52.004;5.924;2023-06-22T03:56:00;7.80;;;7.10;;
9665;SDS011;4871;52.004;5.924;2023-06-22T03:57:00;7.80;;;7.10;;
9665;SDS011;4871;52.004;5.924;2023-06-22T03:58:05;7.80;;;7.10;;
9665;SDS011;4871;52.004;5.924;2023-06-22T03:59:00;7.80;;;7.10;;
9665;SDS011;4871;52.004;5.924;2023-06-22T04:00:00;7.80;;;7.10;;
9665;SDS011;4871;52.004;5.924;2023-06-22T04:01:00;7.80;;;7.10;;
9665;SDS011;4871;52.004;5.924;2023-06-22T04:02:00;7.80;;;7.10;;
9665;SDS011;4871;52.004;5.924;2023-06-22T04:03:00;7.80;;;7.10;;
9665;SDS011;4871;52.004;5.924;2023-06-22T04:04:00;7.80;;;7.10;;
9665;SDS011;4871;52.004;5.924;2023-06-22T04:05:00;10.10;;;9.10;;
9665;SDS011;4871;52.004;5.924;2023-06-22T04:06:00;10.10;;;9.10;;
9665;SDS011;4871;52.004;5.924;2023-06-22T04:07:00;10.10;;;9.10;;
9665;SDS011;4871;52.004;5.924;2023-06-22T04:08:00;10.10;;;9.10;;
9665;SDS011;4871;52.004;5.924;2023-06-22T04:09:01;10.10;;;9.10;;
9665;SDS011;4871;52.004;5.924;2023-06-22T04:10:00;10.10;;;9.10;;
9665;SDS011;4871;52.004;5.924;2023-06-22T04:11:00;10.10;;;9.10;;
9665;SDS011;4871;52.004;5.924;2023-06-22T04:12:00;10.10;;;9.10;;
9665;SDS011;4871;52.004;5.924;2023-06-22T04:13:00;10.10;;;9.10;;
9665;SDS011;4871;52.004;5.924;2023-06-22T04:14:00;10.10;;;9.10;;
9665;SDS011;4871;52.004;5.924;2023-06-22T04:15:00;10.10;;;9.10;;
9665;SDS011;4871;52.004;5.924;2023-06-22T04:16:01;10.10;;;9.10;;
9665;SDS011;4871;52.004;5.924;2023-06-22T04:17:00;10.10;;;9.10;;
9665;SDS011;4871;52.004;5.924;2023-06-22T04:18:00;10.10;;;9.10;;
9665;SDS011;4871;52.004;5.924;2023-06-22T04:19:00;10.10;;;9.10;;
9665;SDS011;4871;52.004;5.924;2023-06-22T04:20:00;10.10;;;9.10;;
9665;SDS011;4871;52.004;5.924;2023-06-22T04:21:00;10.10;;;9.10;;
9665;SDS011;4871;52.004;5.924;2023-06-22T04:22:00;10.10;;;9.10;;
9665;SDS011;4871;52.004;5.924;2023-06-22T04:23:00;10.10;;;9.10;;
9665;SDS011;4871;52.004;5.924;2023-06-22T04:24:00;10.10;;;9.10;;
9665;SDS011;4871;52.004;5.924;2023-06-22T04:25:00;10.10;;;9.10;;
9665;SDS011;4871;52.004;5.924;2023-06-22T04:26:00;10.10;;;9.10;;
9665;SDS011;4871;52.004;5.924;2023-06-22T04:27:02;10.10;;;9.10;;
9665;SDS011;4871;52.004;5.924;2023-06-22T04:28:03;10.10;;;9.10;;
9665;SDS011;4871;52.004;5.924;2023-06-22T04:29:00;10.10;;;9.10;;
9665;SDS011;4871;52.004;5.924;2023-06-22T04:30:00;10.10;;;9.10;;
9665;SDS011;4871;52.004;5.924;2023-06-22T04:31:02;10.10;;;9.10;;
9665;SDS011;4871;52.004;5.924;2023-06-22T04:32:03;10.10;;;9.10;;
9665;SDS011;4871;52.004;5.924;2023-06-22T04:33:00;10.10;;;9.10;;
9665;SDS011;4871;52.004;5.924;2023-06-22T04:34:06;10.10;;;9.10;;
9665;SDS011;4871;52.004;5.924;2023-06-22T04:35:01;13.40;;;12.00;;
9665;SDS011;4871;52.004;5.924;2023-06-22T04:36:01;13.40;;;12.00;;
9665;SDS011;4871;52.004;5.924;2023-06-22T04:37:00;13.40;;;12.00;;
9665;SDS011;4871;52.004;5.924;2023-06-22T04:38:00;13.40;;;12.00;;
9665;SDS011;4871;52.004;5.924;2023-06-22T04:39:00;13.40;;;12.00;;
9665;SDS011;4871;52.004;5.924;2023-06-22T04:40:00;13.40;;;12.00;;
9665;SDS011;4871;52.004;5.924;2023-06-22T04:41:03;13.40;;;12.00;;
9665;SDS011;4871;52.004;5.924;2023-06-22T04:42:00;13.40;;;12.00;;
9665;SDS011;4871;52.004;5.924;2023-06-22T04:43:02;13.40;;;12.00;;
9665;SDS011;4871;52.004;5.924;2023-06-22T04:44:00;13.40;;;12.00;;
9665;SDS011;4871;52.004;5.924;2023-06-22T04:45:00;13.40;;;12.00;;
9665;SDS011;4871;52.004;5.924;2023-06-22T04:46:03;13.40;;;12.00;;
9665;SDS011;4871;52.004;5.924;2023-06-22T04:47:01;13.40;;;12.00;;
9665;SDS011;4871;52.004;5.924;2023-06-22T04:48:00;13.40;;;12.00;;
9665;SDS011;4871;52.004;5.924;2023-06-22T04:49:00;13.40;;;12.00;;
9665;SDS011;4871;52.004;5.924;2023-06-22T04:50:01;13.40;;;12.00;;
9665;SDS011;4871;52.004;5.924;2023-06-22T04:51:03;13.40;;;12.00;;
9665;SDS011;4871;52.004;5.924;2023-06-22T04:52:00;13.40;;;12.00;;
9665;SDS011;4871;52.004;5.924;2023-06-22T04:53:00;13.40;;;12.00;;
9665;SDS011;4871;52.004;5.924;2023-06-22T04:54:00;13.40;;;12.00;;
9665;SDS011;4871;52.004;5.924;2023-06-22T04:55:00;13.40;;;12.00;;
9665;SDS011;4871;52.004;5.924;2023-06-22T04:56:00;13.40;;;12.00;;
9665;SDS011;4871;52.004;5.924;2023-06-22T04:57:00;13.40;;;12.00;;
9665;SDS011;4871;52.004;5.924;2023-06-22T04:58:04;13.40;;;12.00;;
9665;SDS011;4871;52.004;5.924;2023-06-22T04:59:00;13.40;;;12.00;;
9665;SDS011;4871;52.004;5.924;2023-06-22T05:00:10;13.40;;;12.00;;
9665;SDS011;4871;52.004;5.924;2023-06-22T05:01:00;13.40;;;12.00;;
9665;SDS011;4871;52.004;5.924;2023-06-22T05:02:00;13.40;;;12.00;;
9665;SDS011;4871;52.004;5.924;2023-06-22T05:03:00;13.40;;;12.00;;
9665;SDS011;4871;52.004;5.924;2023-06-22T05:04:01;13.40;;;12.00;;
9665;SDS011;4871;52.004;5.924;2023-06-22T05:05:00;17.90;;;15.50;;
9665;SDS011;4871;52.004;5.924;2023-06-22T05:06:00;17.90;;;15.50;;
9665;SDS011;4871;52.004;5.924;2023-06-22T05:07:00;17.90;;;15.50;;
9665;SDS011;4871;52.004;5.924;2023-06-22T05:08:00;17.90;;;15.50;;
9665;SDS011;4871;52.004;5.924;2023-06-22T05:09:00;17.90;;;15.50;;
9665;SDS011;4871;52.004;5.924;2023-06-22T05:10:00;17.90;;;15.50;;
9665;SDS011;4871;52.004;5.924;2023-06-22T05:11:00;17.90;;;15.50;;
9665;SDS011;4871;52.004;5.924;2023-06-22T05:12:02;17.90;;;15.50;;
9665;SDS011;4871;52.004;5.924;2023-06-22T05:13:00;17.90;;;15.50;;
9665;SDS011;4871;52.004;5.924;2023-06-22T05:14:00;17.90;;;15.50;;
9665;SDS011;4871;52.004;5.924;2023-06-22T05:15:01;17.90;;;15.50;;
9665;SDS011;4871;52.004;5.924;2023-06-22T05:16:01;17.90;;;15.50;;
9665;SDS011;4871;52.004;5.924;2023-06-22T05:17:03;17.90;;;15.50;;
9665;SDS011;4871;52.004;5.924;2023-06-22T05:18:05;17.90;;;15.50;;
9665;SDS011;4871;52.004;5.924;2023-06-22T05:19:00;17.90;;;15.50;;
9665;SDS011;4871;52.004;5.924;2023-06-22T05:20:00;17.90;;;15.50;;
9665;SDS011;4871;52.004;5.924;2023-06-22T05:21:00;17.90;;;15.50;;
9665;SDS011;4871;52.004;5.924;2023-06-22T05:22:00;17.90;;;15.50;;
9665;SDS011;4871;52.004;5.924;2023-06-22T05:23:00;17.90;;;15.50;;
9665;SDS011;4871;52.004;5.924;2023-06-22T05:24:03;17.90;;;15.50;;
9665;SDS011;4871;52.004;5.924;2023-06-22T05:25:00;17.90;;;15.50;;
9665;SDS011;4871;52.004;5.924;2023-06-22T05:26:00;17.90;;;15.50;;
9665;SDS011;4871;52.004;5.924;2023-06-22T05:27:00;17.90;;;15.50;;
9665;SDS011;4871;52.004;5.924;2023-06-22T05:28:00;17.90;;;15.50;;
9665;SDS011;4871;52.004;5.924;2023-06-22T05:29:01;17.90;;;15.50;;
9665;SDS011;4871;52.004;5.924;2023-06-22T05:30:00;17.90;;;15.50;;
9665;SDS011;4871;52.004;5.924;2023-06-22T05:31:00;17.90;;;15.50;;
9665;SDS011;4871;52.004;5.924;2023-06-22T05:32:00;17.90;;;15.50;;
9665;SDS011;4871;52.004;5.924;2023-06-22T05:33:00;17.90;;;15.50;;
9665;SDS011;4871;52.004;5.924;2023-06-22T05:34:00;17.90;;;15.50;;
9665;SDS011;4871;52.004;5.924;2023-06-22T05:35:00;18.70;;;16.40;;
9665;SDS011;4871;52.004;5.924;2023-06-22T05:36:00;18.70;;;16.40;;
9665;SDS011;4871;52.004;5.924;2023-06-22T05:37:00;18.70;;;16.40;;
9665;SDS011;4871;52.004;5.924;2023-06-22T05:38:00;18.70;;;16.40;;
9665;SDS011;4871;52.004;5.924;2023-06-22T05:39:00;18.70;;;16.40;;
9665;SDS011;4871;52.004;5.924;2023-06-22T05:40:00;18.70;;;16.40;;
9665;SDS011;4871;52.004;5.924;2023-06-22T05:41:00;18.70;;;16.40;;
9665;SDS011;4871;52.004;5.924;2023-06-22T05:42:00;18.70;;;16.40;;
9665;SDS011;4871;52.004;5.924;2023-06-22T05:43:01;18.70;;;16.40;;
9665;SDS011;4871;52.004;5.924;2023-06-22T05:44:00;18.70;;;16.40;;
9665;SDS011;4871;52.004;5.924;2023-06-22T05:45:00;18.70;;;16.40;;
9665;SDS011;4871;52.004;5.924;2023-06-22T05:46:00;18.70;;;16.40;;
9665;SDS011;4871;52.004;5.924;2023-06-22T05:47:00;18.70;;;16.40;;
9665;SDS011;4871;52.004;5.924;2023-06-22T05:48:01;18.70;;;16.40;;
9665;SDS011;4871;52.004;5.924;2023-06-22T05:49:00;18.70;;;16.40;;
9665;SDS011;4871;52.004;5.924;2023-06-22T05:50:00;18.70;;;16.40;;
9665;SDS011;4871;52.004;5.924;2023-06-22T05:51:00;18.70;;;16.40;;
9665;SDS011;4871;52.004;5.924;2023-06-22T05:52:00;18.70;;;16.40;;
9665;SDS011;4871;52.004;5.924;2023-06-22T05:53:00;18.70;;;16.40;;
9665;SDS011;4871;52.004;5.924;2023-06-22T05:54:00;18.70;;;16.40;;
9665;SDS011;4871;52.004;5.924;2023-06-22T05:55:01;18.70;;;16.40;;
9665;SDS011;4871;52.004;5.924;2023-06-22T05:56:00;18.70;;;16.40;;
9665;SDS011;4871;52.004;5.924;2023-06-22T05:57:00;18.70;;;16.40;;
9665;SDS011;4871;52.004;5.924;2023-06-22T05:58:00;18.70;;;16.40;;
9665;SDS011;4871;52.004;5.924;2023-06-22T05:59:00;18.70;;;16.40;;
9665;SDS011;4871;52.004;5.924;2023-06-22T06:00:00;18.70;;;16.40;;
9665;SDS011;4871;52.004;5.924;2023-06-22T06:01:00;18.70;;;16.40;;
9665;SDS011;4871;52.004;5.924;2023-06-22T06:02:00;18.70;;;16.40;;
9665;SDS011;4871;52.004;5.924;2023-06-22T06:03:03;18.70;;;16.40;;
9665;SDS011;4871;52.004;5.924;2023-06-22T06:04:00;18.70;;;16.40;;
9665;SDS011;4871;52.004;5.924;2023-06-22T06:05:02;16.50;;;14.70;;
9665;SDS011;4871;52.004;5.924;2023-06-22T06:06:02;16.50;;;14.70;;
9665;SDS011;4871;52.004;5.924;2023-06-22T06:07:01;16.50;;;14.70;;
9665;SDS011;4871;52.004;5.924;2023-06-22T06:08:00;16.50;;;14.70;;
9665;SDS011;4871;52.004;5.924;2023-06-22T06:09:00;16.50;;;14.70;;